Details From ESMK - Kristianstad
To ESGJ - Jonkoping
Flight Number -
Tags generated
Created
Modified
Stats Distance 110 nm / 204 km
Max Altitude 12,800 ft / 3,901 m
Waypoints 3
Social Downloads 1
Likes 0
Share VATSIM

Download

Looking for another format? Having issues loading an existing format? Contact us
Advertisement - Login to hide

Notes

Basic altitude profile: - Ascent Rate: 2500ft/min - Ascent Speed: 250kts - Cruise Altitude: 35000ft - Cruise Speed: 420kts - Descent Rate: 1500ft/min - Descent Speed: 250kts Options: - Use NATs: yes - Use PACOTS: yes - Use low airways: yes - Use high airways: yes

Route

ESMK ROXEN ESGJ

ID Type Via Altitude Latitude Longitude Leg Dist Tot Dist Heading (true) Name
O ESMK APT - 0 ft / 0 m 55.92169˚ 14.08553˚ - 0 nm - Kristianstad
ROXEN FIX - 12,800 ft / 3,901 m 56.56453˚ 14.03333˚ 38 nm 38 nm 357° / 357° -
O ESGJ APT - 0 ft / 0 m 57.75505˚ 14.07110˚ 71 nm 110 nm 1° / 1° Jonkoping

Altitude Profile

Advertisement - Login to hide

ESMK

Details ICAO ESMK (KID)
Name Kristianstad
Region Sweden
Timezone Europe/Stockholm (UTC+1.0)
Stats Elevation 76 ft / 23 m (AMSL)
Location 55.921686° 14.085535°
Runways 1
Magnetic Variation 4.235° E

METAR

ESMK 181120Z 17003KT 9999 BKN024 01/01 Q1024

Decode

TAF

Not found

Departure Runways

ID Width Length Bearing (true) Bearing (mag) Surface Threshold Offset Overrun Length
01 148 ft / 45 m 7,259 ft / 2,213 m 7.13° 2.90° Asphalt 0 ft / 0 m 0 ft / 0 m
19 148 ft / 45 m 7,259 ft / 2,213 m 187.13° 182.90° Asphalt 0 ft / 0 m 0 ft / 0 m

ESGJ

Details ICAO ESGJ (JKG)
Name Jonkoping
Region Sweden
Timezone Europe/Stockholm (UTC+1.0)
Stats Elevation 741 ft / 226 m (AMSL)
Location 57.755046° 14.071101°
Runways 2
Magnetic Variation 4.387° E

METAR

ESGJ 181120Z 20005KT 9999 BKN005 00/M00 Q1020 R19/790141

Decode

TAF

Not found

Destination Runways

ID Width Length Bearing (true) Bearing (mag) Surface Threshold Offset Overrun Length
01 148 ft / 45 m 7,218 ft / 2,200 m 18.04° 13.65° Asphalt 0 ft / 0 m 212 ft / 65 m
11 82 ft / 25 m 1,960 ft / 598 m 114.43° 110.04° Dirt 0 ft / 0 m 0 ft / 0 m
19 148 ft / 45 m 7,218 ft / 2,200 m 198.05° 193.66° Asphalt 0 ft / 0 m 117 ft / 36 m
29 82 ft / 25 m 1,960 ft / 598 m 294.44° 290.05° Dirt 0 ft / 0 m 0 ft / 0 m

Approach Navaids

Runway Type Ident Frequency Range Bearing (true) Bearing (mag) Slope Elevation
19 Localiser SJ 109.90 MHz 18 nm / 33 km 198.03° 193.64° - 741 ft / 226 m (AMSL)
19 Glidescope SJ 109.90 MHz 10 nm / 19 km 198.04° 193.65° 3.00° 741 ft / 226 m (AMSL)